METAR Data
IDs: Format: Raw Decoded Include TAF

Data at: 1546 UTC 03 Dec 2021

LIMH 031455Z 04023KT 9999 FEW000 BKN030 M12/M21 Q1005 RMK BKN MON CLD SCT VAL CLD SCT VIS MIN 9999